createdAt,value
2018-12-04T00:01:32.420Z,30.60
2018-12-04T00:04:07.674Z,30.60
2018-12-04T00:06:44.350Z,30.70
2018-12-04T00:09:19.538Z,30.70
2018-12-04T00:11:54.867Z,30.70
2018-12-04T00:14:31.151Z,30.70
2018-12-04T00:17:06.775Z,30.80
2018-12-04T00:19:42.628Z,30.80
2018-12-04T00:22:17.958Z,30.80
2018-12-04T00:24:52.705Z,30.80
2018-12-04T00:27:28.485Z,30.90
2018-12-04T00:30:04.918Z,30.90
2018-12-04T00:32:40.055Z,30.90
2018-12-04T00:35:15.246Z,31.00
2018-12-04T00:37:51.455Z,31.00
2018-12-04T00:40:27.502Z,31.00
2018-12-04T00:43:04.067Z,31.10
2018-12-04T00:45:42.003Z,31.10
2018-12-04T00:48:17.065Z,31.20
2018-12-04T00:50:53.544Z,31.20
2018-12-04T00:53:29.888Z,31.20
2018-12-04T00:56:06.652Z,31.30
2018-12-04T00:58:42.136Z,31.30
2018-12-04T01:01:17.605Z,31.40
2018-12-04T01:03:54.185Z,31.40
2018-12-04T01:06:30.193Z,31.50
2018-12-04T01:09:06.295Z,31.50
2018-12-04T01:11:41.977Z,31.60
2018-12-04T01:14:16.974Z,31.60
2018-12-04T01:16:51.985Z,31.60
2018-12-04T01:19:30.601Z,31.70
2018-12-04T01:22:06.145Z,31.80
2018-12-04T01:24:42.024Z,31.80
2018-12-04T01:27:17.507Z,31.90
2018-12-04T01:29:52.740Z,31.90
2018-12-04T01:32:28.243Z,32.00
2018-12-04T01:35:03.576Z,32.10
2018-12-04T01:37:38.441Z,32.10
2018-12-04T01:40:14.377Z,32.20
2018-12-04T01:42:50.042Z,32.20
2018-12-04T01:45:25.256Z,32.30
2018-12-04T01:48:00.806Z,32.40
2018-12-04T01:50:35.966Z,32.40
2018-12-04T01:53:10.925Z,32.50
2018-12-04T01:55:46.653Z,32.60
2018-12-04T01:58:22.286Z,32.70
2018-12-04T02:00:58.155Z,32.70
2018-12-04T02:03:33.077Z,32.80
2018-12-04T02:06:08.453Z,32.90
2018-12-04T02:08:43.976Z,32.90
2018-12-04T02:11:19.764Z,32.90
2018-12-04T02:13:56.508Z,33.00
2018-12-04T02:16:31.374Z,33.00
2018-12-04T02:19:07.207Z,33.10
2018-12-04T02:21:44.306Z,33.10
2018-12-04T02:24:20.174Z,33.20
2018-12-04T02:26:58.116Z,33.20
2018-12-04T02:29:35.294Z,33.30
2018-12-04T02:32:10.318Z,33.30
2018-12-04T02:34:47.463Z,33.40
2018-12-04T02:37:23.003Z,33.50
2018-12-04T02:39:58.038Z,33.50
2018-12-04T02:42:35.672Z,33.60
2018-12-04T02:45:10.981Z,33.70
2018-12-04T02:47:46.238Z,33.70
2018-12-04T02:50:21.410Z,33.70
2018-12-04T02:52:56.686Z,33.80
2018-12-04T02:55:31.756Z,33.80
2018-12-04T02:58:08.805Z,33.90
2018-12-04T03:00:46.783Z,34.00
2018-12-04T03:03:24.379Z,34.00
2018-12-04T03:05:59.998Z,34.10
2018-12-04T03:09:04.210Z,34.20
2018-12-04T03:11:38.555Z,34.20
2018-12-04T03:14:12.398Z,34.30
2018-12-04T03:16:46.775Z,34.40
2018-12-04T03:19:21.762Z,34.50
2018-12-04T03:21:56.174Z,34.60
2018-12-04T03:24:29.815Z,34.60
2018-12-04T03:27:04.047Z,34.70
2018-12-04T03:29:39.025Z,34.80
2018-12-04T03:32:13.020Z,34.90
2018-12-04T03:34:47.177Z,35.00
2018-12-04T03:37:21.064Z,35.10
2018-12-04T03:39:55.392Z,35.20
2018-12-04T03:42:29.116Z,35.30
2018-12-04T03:45:05.328Z,35.30
2018-12-04T03:47:40.720Z,35.40
2018-12-04T03:50:15.363Z,35.40
2018-12-04T03:52:50.904Z,35.50
2018-12-04T03:55:25.123Z,35.60
2018-12-04T03:57:59.865Z,35.70
2018-12-04T04:00:34.868Z,35.70
2018-12-04T04:03:10.693Z,35.70
2018-12-04T04:05:44.792Z,35.80
2018-12-04T04:08:19.299Z,35.80
2018-12-04T04:10:53.223Z,35.90
2018-12-04T04:13:27.691Z,35.90
2018-12-04T04:16:04.919Z,36.00
2018-12-04T04:18:39.328Z,36.10
2018-12-04T04:21:13.030Z,36.10
2018-12-04T04:23:48.096Z,36.10
2018-12-04T04:26:23.056Z,36.20
2018-12-04T04:28:57.284Z,36.20
2018-12-04T04:31:34.461Z,36.20
2018-12-04T04:34:09.401Z,36.20
2018-12-04T04:36:43.115Z,36.30
2018-12-04T04:39:17.083Z,36.30
2018-12-04T04:41:51.580Z,36.40
2018-12-04T04:44:25.593Z,36.50
2018-12-04T04:47:00.128Z,36.50
2018-12-04T04:50:04.380Z,36.60
2018-12-04T04:52:38.989Z,36.70
2018-12-04T04:55:14.175Z,36.80
2018-12-04T04:57:56.181Z,36.80
2018-12-04T05:00:30.073Z,36.80
2018-12-04T05:03:06.011Z,36.90
2018-12-04T05:05:41.790Z,37.00
2018-12-04T05:08:16.633Z,36.90
2018-12-04T05:10:50.681Z,37.00
2018-12-04T05:13:26.262Z,37.00
2018-12-04T05:16:00.137Z,37.00
2018-12-04T05:18:34.906Z,37.00
2018-12-04T05:21:09.330Z,37.10
2018-12-04T05:23:43.306Z,37.10
2018-12-04T05:26:18.198Z,37.10
2018-12-04T05:28:52.254Z,37.20
2018-12-04T05:31:27.476Z,37.20
2018-12-04T05:34:02.447Z,37.20
2018-12-04T05:36:39.661Z,37.10
2018-12-04T05:39:13.828Z,37.10
2018-12-04T05:41:48.585Z,37.00
2018-12-04T05:44:22.646Z,37.00
2018-12-04T05:46:56.698Z,36.90
2018-12-04T05:49:31.077Z,36.80
2018-12-04T05:52:07.997Z,36.70
2018-12-04T05:54:42.874Z,36.70
2018-12-04T05:57:17.318Z,36.60
2018-12-04T05:59:53.170Z,36.50
2018-12-04T06:02:27.094Z,36.50
2018-12-04T06:05:02.264Z,36.50
2018-12-04T06:07:37.947Z,36.60
2018-12-04T06:10:13.285Z,36.60
2018-12-04T06:12:47.828Z,36.70
2018-12-04T06:15:21.798Z,36.70
2018-12-04T06:17:57.146Z,36.70
2018-12-04T06:20:32.962Z,36.80
2018-12-04T06:23:08.908Z,36.70
2018-12-04T06:25:43.458Z,36.80
2018-12-04T06:28:17.718Z,36.80
2018-12-04T06:30:53.927Z,36.70
2018-12-04T06:33:27.865Z,36.80
2018-12-04T06:36:01.765Z,36.80
2018-12-04T06:38:36.391Z,36.70
2018-12-04T06:41:12.353Z,36.70
2018-12-04T06:43:46.254Z,36.70
2018-12-04T06:46:20.438Z,36.60
2018-12-04T06:48:55.230Z,36.60
2018-12-04T06:51:30.166Z,36.60
2018-12-04T06:54:03.933Z,36.60
2018-12-04T06:56:38.085Z,36.50
2018-12-04T06:59:12.213Z,36.50
2018-12-04T07:01:46.670Z,36.50
2018-12-04T07:04:21.466Z,36.50
2018-12-04T07:06:55.601Z,36.50
2018-12-04T07:09:31.269Z,36.40
2018-12-04T07:12:05.638Z,36.40
2018-12-04T07:14:39.419Z,36.40
2018-12-04T07:17:16.328Z,36.40
2018-12-04T07:19:50.406Z,36.40
2018-12-04T07:22:24.858Z,36.40
2018-12-04T07:24:58.750Z,36.40
2018-12-04T07:27:34.748Z,36.40
2018-12-04T07:30:09.800Z,36.50
2018-12-04T07:32:44.514Z,36.50
2018-12-04T07:35:21.190Z,36.50
2018-12-04T07:38:00.881Z,36.60
2018-12-04T07:40:36.105Z,36.60
2018-12-04T07:43:12.929Z,36.70
2018-12-04T07:45:46.890Z,36.70
2018-12-04T07:48:20.912Z,36.80
2018-12-04T07:50:56.704Z,36.80
2018-12-04T07:53:30.468Z,36.80
2018-12-04T07:56:04.257Z,36.80
2018-12-04T07:58:38.380Z,36.70
2018-12-04T08:01:15.321Z,36.70
2018-12-04T08:03:56.332Z,36.70
2018-12-04T08:06:33.091Z,36.60
2018-12-04T08:09:13.252Z,36.60
2018-12-04T08:11:50.880Z,36.50
2018-12-04T08:14:27.957Z,36.50
2018-12-04T08:17:09.993Z,36.50
2018-12-04T08:19:51.821Z,36.40
2018-12-04T08:22:29.670Z,36.40
2018-12-04T08:25:11.075Z,36.30
2018-12-04T08:27:49.590Z,36.30
2018-12-04T08:30:28.870Z,36.30
2018-12-04T08:33:14.136Z,36.30
2018-12-04T08:35:55.831Z,36.30
2018-12-04T08:38:33.965Z,36.30
2018-12-04T08:41:10.582Z,36.30
2018-12-04T08:43:49.233Z,36.30
2018-12-04T08:46:25.639Z,36.30
2018-12-04T08:49:05.367Z,36.30
2018-12-04T08:51:44.629Z,36.20
2018-12-04T08:54:25.198Z,36.20
2018-12-04T08:57:08.533Z,36.20
2018-12-04T08:59:47.478Z,36.10
2018-12-04T09:02:30.401Z,36.10
2018-12-04T09:05:09.394Z,36.10
2018-12-04T09:07:48.028Z,36.00
2018-12-04T09:10:23.729Z,36.00
2018-12-04T09:13:06.969Z,36.00
2018-12-04T09:15:44.305Z,36.00
2018-12-04T09:18:23.323Z,35.90
2018-12-04T09:21:14.752Z,35.90
2018-12-04T09:23:53.354Z,35.90
2018-12-04T09:26:32.742Z,35.90
2018-12-04T09:29:09.896Z,35.90
2018-12-04T09:31:47.756Z,35.90
2018-12-04T09:34:29.683Z,35.80
2018-12-04T09:37:08.291Z,35.80
2018-12-04T09:39:49.731Z,35.80
2018-12-04T09:42:25.210Z,35.70
2018-12-04T09:44:59.110Z,35.70
2018-12-04T09:47:35.798Z,35.70
2018-12-04T09:50:10.700Z,35.70
2018-12-04T09:52:45.215Z,35.70
2018-12-04T09:55:18.922Z,35.70
2018-12-04T09:57:52.934Z,35.70
2018-12-04T10:00:27.042Z,35.70
2018-12-04T10:03:02.638Z,35.70
2018-12-04T10:05:36.666Z,35.70
2018-12-04T10:08:10.782Z,35.70
2018-12-04T10:10:45.227Z,35.80
2018-12-04T10:13:19.356Z,35.80
2018-12-04T10:15:54.291Z,35.80
2018-12-04T10:18:28.782Z,35.80
2018-12-04T10:21:02.973Z,35.80
2018-12-04T10:23:36.800Z,35.80
2018-12-04T10:26:10.777Z,35.70
2018-12-04T10:28:46.901Z,35.70
2018-12-04T10:31:23.998Z,35.60
2018-12-04T10:33:59.068Z,35.60
2018-12-04T10:36:34.851Z,35.60
2018-12-04T10:39:11.002Z,35.50
2018-12-04T10:41:47.447Z,35.40
2018-12-04T10:44:24.889Z,35.40
2018-12-04T10:47:01.925Z,35.30
2018-12-04T10:49:37.223Z,35.30
2018-12-04T10:52:11.236Z,35.20
2018-12-04T10:54:46.214Z,35.20
2018-12-04T10:57:22.893Z,35.10
2018-12-04T10:59:56.873Z,35.10
2018-12-04T11:02:33.157Z,35.00
2018-12-04T11:05:08.045Z,35.00
2018-12-04T11:07:43.296Z,35.00
2018-12-04T11:10:18.735Z,34.90
2018-12-04T11:12:54.933Z,34.90
2018-12-04T11:15:31.237Z,34.90
2018-12-04T11:18:05.494Z,34.90
2018-12-04T11:20:39.468Z,34.80
2018-12-04T11:23:14.977Z,34.80
2018-12-04T11:25:49.029Z,34.80
2018-12-04T11:28:24.446Z,34.70
2018-12-04T11:30:59.018Z,34.70
2018-12-04T11:33:33.127Z,34.70
2018-12-04T11:36:07.993Z,34.70
2018-12-04T11:38:41.640Z,34.60
2018-12-04T11:41:16.156Z,34.60
2018-12-04T11:43:52.963Z,34.60
2018-12-04T11:46:27.872Z,34.60
2018-12-04T11:49:02.604Z,34.60
2018-12-04T11:51:38.364Z,34.60
2018-12-04T11:54:14.517Z,34.60
2018-12-04T11:56:51.295Z,34.50
2018-12-04T11:59:25.333Z,34.50
2018-12-04T12:01:59.123Z,34.50
2018-12-04T12:04:33.560Z,34.40
2018-12-04T12:07:07.186Z,34.40
2018-12-04T12:09:41.593Z,34.40
2018-12-04T12:12:17.547Z,34.40
2018-12-04T12:14:52.673Z,34.40
2018-12-04T12:17:26.790Z,34.30
2018-12-04T12:20:00.696Z,34.30
2018-12-04T12:27:38.104Z,34.30
2018-12-04T12:30:13.588Z,34.20
2018-12-04T12:32:49.104Z,34.10
2018-12-04T12:35:23.082Z,34.10
2018-12-04T12:37:57.504Z,34.10
2018-12-04T12:40:32.540Z,34.10
2018-12-04T12:43:06.147Z,34.10
2018-12-04T12:45:41.353Z,34.10
2018-12-04T12:48:15.132Z,34.10
2018-12-04T12:50:51.005Z,34.10
2018-12-04T12:53:26.631Z,34.10
2018-12-04T12:56:01.601Z,34.10
2018-12-04T12:58:37.169Z,34.10
2018-12-04T13:01:13.216Z,34.10
2018-12-04T13:03:47.131Z,34.10
2018-12-04T13:06:22.142Z,34.10
2018-12-04T13:08:57.456Z,34.10
2018-12-04T13:11:31.165Z,34.10
2018-12-04T13:14:05.905Z,34.10
2018-12-04T13:16:39.887Z,34.10
2018-12-04T13:19:14.222Z,34.00
2018-12-04T13:21:48.432Z,34.00
2018-12-04T13:24:22.534Z,34.00
2018-12-04T13:26:56.390Z,34.00
2018-12-04T13:29:30.245Z,34.00
2018-12-04T13:32:04.731Z,34.00
2018-12-04T13:34:39.788Z,33.90
2018-12-04T13:37:14.068Z,33.90
2018-12-04T13:39:48.274Z,33.90
2018-12-04T13:42:22.804Z,33.90
2018-12-04T13:44:57.117Z,33.90
2018-12-04T13:47:31.378Z,33.90
2018-12-04T13:50:06.539Z,33.90
2018-12-04T13:52:40.484Z,33.90
2018-12-04T13:55:14.643Z,33.80
2018-12-04T13:57:50.764Z,33.90
2018-12-04T14:00:25.946Z,33.80
2018-12-04T14:03:00.362Z,33.80
2018-12-04T14:05:34.323Z,33.80
2018-12-04T14:08:10.194Z,33.80
2018-12-04T14:10:44.452Z,33.80
2018-12-04T14:13:18.373Z,33.80
2018-12-04T14:15:52.274Z,33.80
2018-12-04T14:18:26.027Z,33.70
2018-12-04T14:21:00.294Z,33.70
2018-12-04T14:23:34.505Z,33.70
2018-12-04T14:26:09.517Z,33.70
2018-12-04T14:28:43.540Z,33.70
2018-12-04T14:31:17.641Z,33.70
2018-12-04T14:33:51.413Z,33.70
2018-12-04T14:36:26.348Z,33.60
2018-12-04T14:39:00.420Z,33.60
2018-12-04T14:41:37.595Z,33.60
2018-12-04T14:44:12.802Z,33.60
2018-12-04T14:46:48.434Z,33.60
2018-12-04T14:49:23.179Z,33.60
2018-12-04T14:51:57.211Z,33.60
2018-12-04T14:54:31.374Z,33.50
2018-12-04T14:57:06.757Z,33.50
2018-12-04T14:59:41.925Z,33.50
2018-12-04T15:02:16.195Z,33.50
2018-12-04T15:04:50.191Z,33.50
2018-12-04T15:07:25.162Z,33.40
2018-12-04T15:09:59.196Z,33.40
2018-12-04T15:12:33.532Z,33.40
2018-12-04T15:15:07.705Z,33.40
2018-12-04T15:17:42.219Z,33.40
2018-12-04T15:20:15.899Z,33.40
2018-12-04T15:22:50.390Z,33.40
2018-12-04T15:25:24.467Z,33.30
2018-12-04T15:27:58.880Z,33.40
2018-12-04T15:30:33.634Z,33.30
2018-12-04T15:33:07.334Z,33.30
2018-12-04T15:35:42.561Z,33.30
2018-12-04T15:38:17.429Z,33.30
2018-12-04T15:40:51.389Z,33.30
2018-12-04T15:43:25.314Z,33.20
2018-12-04T15:45:59.365Z,33.30
2018-12-04T15:48:33.433Z,33.20
2018-12-04T15:51:07.528Z,33.20
2018-12-04T15:53:41.831Z,33.20
2018-12-04T15:56:15.791Z,33.20
2018-12-04T15:58:49.906Z,33.20
2018-12-04T16:01:23.776Z,33.20
2018-12-04T16:03:57.752Z,33.20
2018-12-04T16:06:31.669Z,33.20
2018-12-04T16:09:05.912Z,33.10
2018-12-04T16:11:40.900Z,33.10
2018-12-04T16:14:15.128Z,33.10
2018-12-04T16:16:49.594Z,33.10
2018-12-04T16:19:24.616Z,33.10
2018-12-04T16:21:58.958Z,33.00
2018-12-04T16:24:33.333Z,33.00
2018-12-04T16:27:06.992Z,33.00
2018-12-04T16:29:41.229Z,33.00
2018-12-04T16:32:15.243Z,33.00
2018-12-04T16:34:49.738Z,33.00
2018-12-04T16:37:23.735Z,33.00
2018-12-04T16:39:58.368Z,33.00
2018-12-04T16:42:32.828Z,33.00
2018-12-04T16:45:07.095Z,33.00
2018-12-04T16:47:42.755Z,32.90
2018-12-04T16:50:17.063Z,32.90
2018-12-04T16:52:51.204Z,32.90
2018-12-04T16:55:25.368Z,32.90
2018-12-04T16:58:00.327Z,32.90
2018-12-04T17:00:34.287Z,32.90
2018-12-04T17:03:08.135Z,32.80
2018-12-04T17:05:42.174Z,32.90
2018-12-04T17:08:17.678Z,32.80
2018-12-04T17:10:51.591Z,32.80
2018-12-04T17:13:29.895Z,32.80
2018-12-04T17:16:03.805Z,32.80
2018-12-04T17:18:38.125Z,32.80
2018-12-04T17:21:12.925Z,32.70
2018-12-04T17:23:47.466Z,32.70
2018-12-04T17:26:21.345Z,32.70
2018-12-04T17:28:55.636Z,32.70
2018-12-04T17:31:29.860Z,32.70
2018-12-04T17:34:04.034Z,32.60
2018-12-04T17:36:39.178Z,32.60
2018-12-04T17:39:15.911Z,32.60
2018-12-04T17:41:50.161Z,32.60
2018-12-04T17:44:24.358Z,32.60
2018-12-04T17:46:58.599Z,32.60
2018-12-04T17:49:35.067Z,32.60
2018-12-04T17:52:09.247Z,32.50
2018-12-04T17:54:43.390Z,32.50
2018-12-04T17:57:17.231Z,32.50
2018-12-04T17:59:51.424Z,32.50
2018-12-04T18:02:27.438Z,32.50
2018-12-04T18:05:01.695Z,32.50
2018-12-04T18:07:35.785Z,32.50
2018-12-04T18:10:10.805Z,32.40
2018-12-04T18:12:44.882Z,32.50
2018-12-04T18:15:19.312Z,32.40
2018-12-04T18:17:53.366Z,32.40
2018-12-04T18:20:28.485Z,32.40
2018-12-04T18:23:02.681Z,32.30
2018-12-04T18:25:39.181Z,32.30
2018-12-04T18:28:13.784Z,32.30
2018-12-04T18:30:48.261Z,32.30
2018-12-04T18:33:22.292Z,32.30
2018-12-04T18:35:57.412Z,32.30
2018-12-04T18:38:32.558Z,32.30
2018-12-04T18:41:07.340Z,32.30
2018-12-04T18:43:41.768Z,32.20
2018-12-04T18:46:16.536Z,32.20
2018-12-04T18:48:51.132Z,32.20
2018-12-04T18:51:26.731Z,32.20
2018-12-04T18:54:00.633Z,32.20
2018-12-04T18:56:34.961Z,32.20
2018-12-04T18:59:09.753Z,32.10
2018-12-04T19:01:48.584Z,32.10
2018-12-04T19:04:29.642Z,32.00
2018-12-04T19:07:06.177Z,32.00
2018-12-04T19:09:45.345Z,32.00
2018-12-04T19:12:20.426Z,32.00
2018-12-04T19:14:55.686Z,31.90
2018-12-04T19:17:31.371Z,31.90
2018-12-04T19:20:05.901Z,31.90
2018-12-04T19:22:42.053Z,31.90
2018-12-04T19:25:16.607Z,31.90
2018-12-04T19:27:50.419Z,31.90
2018-12-04T19:30:28.553Z,31.80
2018-12-04T19:33:08.165Z,31.80
2018-12-04T19:35:42.487Z,31.80
2018-12-04T19:38:16.830Z,31.80
2018-12-04T19:40:51.205Z,31.80
2018-12-04T19:43:25.911Z,31.80
2018-12-04T19:46:06.373Z,31.80
2018-12-04T19:48:41.236Z,31.80
2018-12-04T19:51:16.866Z,31.80
2018-12-04T19:53:53.999Z,31.80
2018-12-04T19:56:29.374Z,31.80
2018-12-04T19:59:03.635Z,31.70
2018-12-04T20:01:38.932Z,31.70
2018-12-04T20:04:13.975Z,31.80
2018-12-04T20:06:49.057Z,31.70
2018-12-04T20:09:25.877Z,31.70
2018-12-04T20:12:00.048Z,31.70
2018-12-04T20:14:34.367Z,31.70
2018-12-04T20:17:08.153Z,31.70
2018-12-04T20:19:44.398Z,31.70
2018-12-04T20:22:18.404Z,31.70
2018-12-04T20:24:52.711Z,31.70
2018-12-04T20:27:27.362Z,31.60
2018-12-04T20:30:02.524Z,31.60
2018-12-04T20:32:36.427Z,31.70
2018-12-04T20:35:10.739Z,31.70
2018-12-04T20:37:47.588Z,31.60
2018-12-04T20:40:22.338Z,31.60
2018-12-04T20:42:56.415Z,31.60
2018-12-04T20:45:30.767Z,31.60
2018-12-04T20:48:08.189Z,31.60
2018-12-04T20:50:42.879Z,31.60
2018-12-04T20:53:16.858Z,31.50
2018-12-04T20:55:51.187Z,31.50
2018-12-04T20:58:25.055Z,31.60
2018-12-04T21:00:59.947Z,31.50
2018-12-04T21:03:36.302Z,31.50
2018-12-04T21:06:10.003Z,31.50
2018-12-04T21:08:45.219Z,31.50
2018-12-04T21:11:19.092Z,31.40
2018-12-04T21:13:54.245Z,31.40
2018-12-04T21:16:28.505Z,31.40
2018-12-04T21:19:02.245Z,31.40
2018-12-04T21:21:36.690Z,31.40
2018-12-04T21:24:10.886Z,31.40
2018-12-04T21:26:45.680Z,31.40
2018-12-04T21:29:23.418Z,31.30
2018-12-04T21:32:04.518Z,31.30
2018-12-04T21:34:48.336Z,31.30
2018-12-04T21:37:24.615Z,31.30
2018-12-04T21:40:02.306Z,31.30
2018-12-04T21:42:40.469Z,31.30
2018-12-04T21:45:19.310Z,31.20
2018-12-04T21:48:02.743Z,31.20
2018-12-04T21:50:38.635Z,31.20
2018-12-04T21:53:12.997Z,31.20
2018-12-04T21:55:48.151Z,31.20
2018-12-04T21:58:22.397Z,31.20
2018-12-04T22:00:57.664Z,31.20
2018-12-04T22:03:31.855Z,31.20
2018-12-04T22:06:07.079Z,31.20
2018-12-04T22:08:42.543Z,31.20
2018-12-04T22:11:16.993Z,31.20
2018-12-04T22:13:52.494Z,31.20
2018-12-04T22:16:26.392Z,31.10
2018-12-04T22:19:00.442Z,31.20
2018-12-04T22:21:34.915Z,31.20
2018-12-04T22:24:09.338Z,31.20
2018-12-04T22:26:43.296Z,31.20
2018-12-04T22:29:17.667Z,31.20
2018-12-04T22:31:52.561Z,31.10
2018-12-04T22:34:28.639Z,31.20
2018-12-04T22:37:02.763Z,31.10
2018-12-04T22:39:36.690Z,31.10
2018-12-04T22:42:11.751Z,31.20
2018-12-04T22:44:46.544Z,31.10
2018-12-04T22:47:22.909Z,31.10
2018-12-04T22:49:56.855Z,31.10
2018-12-04T22:52:31.992Z,31.10
2018-12-04T22:55:06.355Z,31.10
2018-12-04T22:57:40.359Z,31.10
2018-12-04T23:00:37.530Z,31.10
2018-12-04T23:03:11.766Z,31.10
2018-12-04T23:05:45.446Z,31.10
2018-12-04T23:08:20.208Z,31.10
2018-12-04T23:10:54.367Z,31.10
2018-12-04T23:13:28.646Z,31.10
2018-12-04T23:16:02.688Z,31.10
2018-12-04T23:18:38.685Z,31.10
2018-12-04T23:21:14.557Z,31.10
2018-12-04T23:23:49.039Z,31.10
2018-12-04T23:26:22.993Z,31.10
2018-12-04T23:28:57.122Z,31.10
2018-12-04T23:31:32.378Z,31.10
2018-12-04T23:34:06.778Z,31.10
2018-12-04T23:36:42.539Z,31.10
2018-12-04T23:39:16.818Z,31.00
2018-12-04T23:41:52.319Z,31.00
2018-12-04T23:44:27.537Z,31.00
2018-12-04T23:47:01.720Z,31.00
2018-12-04T23:49:36.148Z,31.00
2018-12-04T23:52:11.001Z,31.00
2018-12-04T23:54:47.224Z,31.00
2018-12-04T23:57:21.591Z,31.00
2018-12-04T23:59:56.925Z,31.10
